Flight Track Log - Related Links

Times and Time Zones

All times are in EDT time to prevent confusion due to time zone crossing. See the CPZ5802 flight status page for this flight to view local times or setup timezone preferences in your user account.


Time Position Orientation Groundspeed Altitude Reporting Facility
EDT Latitude Longitude Course Direction KTS MPH feet Rate Location/Type
Tue 03:51:26 PM 33.6500 -84.4833 349° North 177 204 2,700  Level Atlanta TRACON
Tue 03:52:26 PM 33.6833 -84.5500 301° West 249 287 5,200 2,857 Climbing Atlanta TRACON
Tue 03:53:00 PM 34.0617 -84.5282 349° North  Level FlightAware Approximate
Tue 03:53:32 PM 33.7333 -84.6000 320° Northwest 271 312 8,700  Level Atlanta TRACON
Tue 03:54:00 PM 34.1623 -84.5559 347° North  Level FlightAware Approximate
Tue 03:54:32 PM 33.8167 -84.6000 360° North 302 348 10,000  Level Atlanta TRACON
Tue 03:55:00 PM 34.2630 -84.5809 349° North  Level FlightAware Approximate
Tue 03:55:26 PM 33.9000 -84.6167 351° North 333 383 12,700  Level Atlanta TRACON
Tue 03:55:58 PM 33.9472 -84.6172 359° North 334 384 13,500 848 Climbing Atlanta Center
Tue 03:56:00 PM 34.3642 -84.6039 349° North  Level FlightAware Approximate
Tue 03:56:58 PM 34.0350 -84.6228 357° North 373 429 14,000  Level Atlanta Center
Tue 03:57:58 PM 34.1289 -84.6311 356° North 352 405 16,000 2,200 Climbing Atlanta Center
Tue 03:58:58 PM 34.2247 -84.6367 357° North 347 399 18,400 2,300 Climbing Atlanta Center
Tue 03:59:58 PM 34.3208 -84.6550 351° North 342 394 20,600 1,850 Climbing Atlanta Center
Tue 04:00:58 PM 34.4272 -84.6783 350° North 352 405 22,100 1,550 Climbing Atlanta Center
Tue 04:01:58 PM 34.5314 -84.7019 349° North 364 419 23,700 1,700 Climbing Atlanta Center
Tue 04:02:58 PM 34.6375 -84.7281 349° North 375 432 25,500 1,500 Climbing Atlanta Center
Tue 04:03:58 PM 34.7397 -84.7542 348° North 375 432 26,700 1,100 Climbing Atlanta Center
Tue 04:04:58 PM 34.8522 -84.7778 350° North 388 447 27,700 1,350 Climbing Atlanta Center
Tue 04:05:58 PM 34.9647 -84.8067 348° North 398 458 29,400 1,950 Climbing Atlanta Center
Tue 04:06:58 PM 35.0753 -84.8331 349° North 398 458 31,600 1,900 Climbing Atlanta Center
Tue 04:07:58 PM 35.1731 -84.8569 349° North 382 440 33,200 1,200 Climbing Atlanta Center
Tue 04:08:58 PM 35.2731 -84.8808 349° North 369 425 34,000 400 Climbing Atlanta Center
Tue 04:09:58 PM 35.3814 -84.9047 350° North 375 432 34,000  Level Atlanta Center
Tue 04:10:58 PM 35.4961 -84.9317 349° North 392 451 34,000  Level Atlanta Center
Tue 04:11:58 PM 35.6106 -84.9608 348° North 404 465 34,000  Level Atlanta Center
Tue 04:12:58 PM 35.7208 -84.9878 349° North 411 473 34,000  Level Atlanta Center
Tue 04:14:52 PM 35.9192 -85.0339 349° North 407 468 34,000  Level Indianapolis Center
Tue 04:15:54 PM 36.0400 -85.0622 349° North 403 464 34,000  Level Indianapolis Center
Tue 04:16:56 PM 36.1500 -85.0889 349° North 402 463 34,000  Level Indianapolis Center
Tue 04:17:58 PM 36.2600 -85.1219 346° North 407 468 34,000  Level Indianapolis Center
Tue 04:19:00 PM 36.3628 -85.1781 336° Northwest 405 466 34,000  Level Indianapolis Center
Tue 04:20:02 PM 36.4872 -85.2478 336° Northwest 408 470 34,000  Level Indianapolis Center
Tue 04:21:04 PM 36.5911 -85.3050 336° Northwest 408 470 34,000  Level Indianapolis Center
Tue 04:22:06 PM 36.6961 -85.3631 336° Northwest 411 473 34,000  Level Indianapolis Center
Tue 04:23:08 PM 36.8014 -85.4208 336° Northwest 413 475 34,000  Level Indianapolis Center
Tue 04:24:10 PM 36.9064 -85.4797 336° Northwest 414 476 34,000  Level Indianapolis Center
Tue 04:25:12 PM 37.0231 -85.5450 336° Northwest 416 479 34,000  Level Indianapolis Center
Tue 04:26:14 PM 37.1294 -85.6067 335° Northwest 419 482 34,000  Level Indianapolis Center
Tue 04:27:16 PM 37.2344 -85.6631 337° Northwest 410 472 34,000  Level Indianapolis Center
Tue 04:28:19 PM 37.3475 -85.7283 335° Northwest 428 493 34,000  Level Indianapolis Center
Tue 04:29:21 PM 37.4536 -85.7889 336° Northwest 420 483 34,000  Level Indianapolis Center
Tue 04:30:23 PM 37.5611 -85.8500 336° Northwest 422 486 34,000  Level Indianapolis Center
Tue 04:31:25 PM 37.6694 -85.9114 336° Northwest 424 488 34,000  Level Indianapolis Center
Tue 04:32:27 PM 37.8050 -85.9889 336° Northwest 441 507 34,000  Level Indianapolis Center
Tue 04:33:29 PM 37.9189 -86.0553 335° Northwest 449 517 34,000  Level Indianapolis Center
Tue 04:34:31 PM 38.0339 -86.1217 336° Northwest 453 521 34,000  Level Indianapolis Center
Tue 04:35:33 PM 38.1489 -86.1889 335° Northwest 456 525 34,000  Level Indianapolis Center
Tue 04:36:35 PM 38.2642 -86.2561 335° Northwest 455 524 34,000  Level Indianapolis Center
Tue 04:37:37 PM 38.3783 -86.3222 336° Northwest 452 520 34,000  Level Indianapolis Center
Tue 04:38:39 PM 38.5144 -86.4014 336° Northwest 449 517 34,000  Level Indianapolis Center
Tue 04:39:41 PM 38.6278 -86.4692 335° Northwest 450 518 34,000  Level Indianapolis Center
Tue 04:40:43 PM 38.7414 -86.5358 335° Northwest 451 519 34,000  Level Indianapolis Center
Tue 04:41:45 PM 38.8547 -86.6028 335° Northwest 449 517 34,000  Level Indianapolis Center
Tue 04:42:47 PM 38.9694 -86.6714 335° Northwest 454 522 34,000  Level Indianapolis Center
Tue 04:43:49 PM 39.0839 -86.7394 335° Northwest 454 522 34,000  Level Indianapolis Center
Tue 04:44:51 PM 39.2056 -86.8128 335° Northwest 444 511 34,000  Level Indianapolis Center
Tue 04:45:53 PM 39.3189 -86.8803 335° Northwest 446 513 34,000  Level Indianapolis Center
Tue 04:46:55 PM 39.4347 -86.9508 335° Northwest 457 526 34,000  Level Indianapolis Center
Tue 04:47:57 PM 39.5736 -87.0356 335° Northwest 457 526 34,000  Level Indianapolis Center
Tue 04:48:59 PM 39.6892 -87.1056 335° Northwest 457 526 34,000  Level Indianapolis Center
Tue 04:50:01 PM 39.8050 -87.1767 335° Northwest 459 528 34,000  Level Indianapolis Center
Tue 04:51:03 PM 39.9208 -87.2469 335° Northwest 457 526 34,000  Level Indianapolis Center
Tue 04:52:05 PM 40.0364 -87.3181 335° Northwest 460 529 34,000  Level Indianapolis Center
Tue 04:53:08 PM 40.1517 -87.3892 335° Northwest 458 527 34,000 528 Level Indianapolis Center
Tue 04:54:10 PM 40.2658 -87.4600 335° Northwest 454 522 35,100 968 Climbing Indianapolis Center
Tue 04:55:12 PM 40.3997 -87.5428 335° Northwest 446 513 36,000 435 Climbing Indianapolis Center
Tue 04:56:14 PM 40.5139 -87.6147 334° Northwest 455 524 36,000  Level Indianapolis Center
Tue 04:57:24 PM 40.6439 -87.6975 334° Northwest 469 540 36,000  Level Chicago Center
Tue 04:58:26 PM 40.7611 -87.7719 334° Northwest 473 544 36,000  Level Chicago Center
Tue 04:59:28 PM 40.9031 -87.8614 335° Northwest 472 543 36,000  Level Chicago Center
Tue 05:00:30 PM 41.0200 -87.9361 334° Northwest 471 542 36,000  Level Chicago Center
Tue 05:01:32 PM 41.1392 -88.0103 335° Northwest 471 542 36,000  Level Chicago Center
Tue 05:02:34 PM 41.2586 -88.0881 334° Northwest 475 547 36,000 -339 Level Chicago Center
Tue 05:03:36 PM 41.3919 -88.1736 334° Northwest 474 545 35,300 -484 Descending Chicago Center
Tue 05:04:38 PM 41.4983 -88.2425 334° Northwest 461 531 35,000 -145 Descending Chicago Center
Tue 05:05:40 PM 41.6147 -88.3178 334° Northwest 462 532 35,000 -677 Level Chicago Center
Tue 05:06:42 PM 41.7311 -88.3931 334° Northwest 466 536 33,600 -2,419 Descending Chicago Center
Tue 05:07:44 PM 41.8686 -88.4831 334° Northwest 461 531 30,000 -3,120 Descending Chicago Center
Tue 05:08:47 PM 41.9819 -88.5575 334° Northwest 457 526 27,100 -2,784 Descending Chicago Center
Tue 05:09:49 PM 42.0928 -88.6306 334° Northwest 446 513 24,200 -1,500 Descending Chicago Center
Tue 05:10:51 PM 42.1981 -88.6994 334° Northwest 427 491 24,000 -677 Descending Chicago Center
Tue 05:11:53 PM 42.3042 -88.7708 334° Northwest 428 493 22,800 -1,742 Descending Chicago Center
Tue 05:12:55 PM 42.4253 -88.8539 333° Northwest 420 483 20,400 -2,323 Descending Chicago Center
Tue 05:13:57 PM 42.5244 -88.9219 333° Northwest 404 465 18,000 -2,323 Descending Chicago Center
Tue 05:14:59 PM 42.6228 -88.9869 334° Northwest 394 453 15,600 -2,323 Descending Chicago Center
Tue 05:16:01 PM 42.7167 -89.0506 334° Northwest 382 440 13,200 -1,355 Descending Chicago Center
Tue 05:17:03 PM 42.8225 -89.1231 333° Northwest 366 421 12,800 -1,016 Descending Chicago Center
Tue 05:18:05 PM 42.9008 -89.1875 329° Northwest 349 402 11,100 -1,065 Descending Chicago Center
Tue 05:19:07 PM 42.9544 -89.2825 308° West 321 369 10,600 -1,258 Descending Chicago Center
Tue 05:20:09 PM 43.0036 -89.3678 308° West 293 337 8,500 -1,935 Descending Chicago Center
Tue 05:21:11 PM 43.0519 -89.4531 308° West 286 329 6,600 -1,344 Descending Chicago Center
Tue 05:22:14 PM 43.1158 -89.4678 350° North 244 281 5,700 -1,296 Descending Chicago Center
Tue 05:23:16 PM 43.1894 -89.4647 North 238 274 3,900 -1,306 Descending Chicago Center
Tue 05:24:18 PM 43.2361 -89.4133 39° Northeast 224 258 3,000 -871 Descending Chicago Center

Login

Don't have an account? Register now (free) for customized features, flight alerts, and more!